YBUC weather

Butch Airport
Western Australia, Australia

Public forecast

Using degrees Celsius for public forecast. Weather courtesy of forecast.io.

METAR (pilot weather report)

Closest report is Perth Jandakot Airport, 111.4 nm (206.3 km) NNE. Retrieved 2019/03/26 20:30 UTC (23 minutes ago):

YPJT 262030Z AUTO 00000KT 9999 // NCD 16/12 Q1013 RF00.0/000.0

TAF (pilot weather forecast)

Closest forecast is Perth Jandakot Airport, 111.4 nm (206.3 km) NNE. Retrieved 2019/03/26 18:00 UTC (3 hours ago):

TAF YPJT 261641Z 2618/2712 10004KT CAVOK FM270400 22014KT CAVOK